createdAt,value
2019-02-07T00:02:35.306Z,0.20
2019-02-07T00:07:36.577Z,0.20
2019-02-07T00:12:37.944Z,0.20
2019-02-07T00:17:39.169Z,0.30
2019-02-07T00:22:40.624Z,0.30
2019-02-07T00:27:42.070Z,0.30
2019-02-07T00:32:43.915Z,0.40
2019-02-07T00:37:45.264Z,0.30
2019-02-07T00:42:47.310Z,0.30
2019-02-07T00:47:51.152Z,0.40
2019-02-07T00:52:52.507Z,0.30
2019-02-07T00:57:54.158Z,0.30
2019-02-07T01:02:55.512Z,0.40
2019-02-07T01:07:56.743Z,0.40
2019-02-07T01:12:58.115Z,0.40
2019-02-07T01:17:59.649Z,0.50
2019-02-07T01:23:00.888Z,0.60
2019-02-07T01:28:02.868Z,0.60
2019-02-07T01:33:04.215Z,0.50
2019-02-07T01:38:05.879Z,0.40
2019-02-07T01:43:07.141Z,0.40
2019-02-07T01:48:08.388Z,0.40
2019-02-07T01:53:09.620Z,0.30
2019-02-07T01:58:10.863Z,0.20
2019-02-07T02:03:12.116Z,0.20
2019-02-07T02:08:13.460Z,0.20
2019-02-07T02:13:14.801Z,0.30
2019-02-07T02:18:16.047Z,0.30
2019-02-07T02:23:17.531Z,0.30
2019-02-07T02:28:19.184Z,0.20
2019-02-07T02:33:20.517Z,0.30
2019-02-07T02:38:21.760Z,0.40
2019-02-07T02:43:23.100Z,0.20
2019-02-07T02:48:24.345Z,0.30
2019-02-07T02:53:25.593Z,0.30
2019-02-07T02:58:26.913Z,0.30
2019-02-07T03:03:30.808Z,0.20
2019-02-07T03:08:34.179Z,0.20
2019-02-07T03:13:49.416Z,0.30
2019-02-07T03:19:09.446Z,0.30
2019-02-07T03:24:12.606Z,0.30
2019-02-07T03:29:15.766Z,0.30
2019-02-07T03:34:28.015Z,0.30
2019-02-07T03:39:31.196Z,0.30
2019-02-07T03:44:43.802Z,0.30
2019-02-07T03:50:03.965Z,0.30
2019-02-07T03:55:13.006Z,0.20
2019-02-07T04:00:31.569Z,0.20
2019-02-07T04:05:35.029Z,0.10
2019-02-07T04:10:43.182Z,0.20
2019-02-07T04:15:54.933Z,0.20
2019-02-07T04:21:10.283Z,0.20
2019-02-07T04:26:19.597Z,0.20
2019-02-07T04:31:34.766Z,0.20
2019-02-07T04:36:37.906Z,0.30
2019-02-07T04:41:57.689Z,0.30
2019-02-07T04:47:19.213Z,0.40
2019-02-07T04:52:40.371Z,0.40
2019-02-07T04:57:46.543Z,0.40
2019-02-07T05:02:49.711Z,0.40
2019-02-07T05:07:52.863Z,0.40
2019-02-07T05:12:58.693Z,0.40
2019-02-07T05:18:11.100Z,0.50
2019-02-07T05:23:26.717Z,0.50
2019-02-07T05:28:29.841Z,0.60
2019-02-07T05:33:36.266Z,0.80
2019-02-07T05:38:42.166Z,0.70
2019-02-07T05:44:03.641Z,0.70
2019-02-07T05:49:15.497Z,0.70
2019-02-07T05:54:30.908Z,0.80
2019-02-07T05:59:34.068Z,0.80
2019-02-07T06:04:55.770Z,0.90
2019-02-07T06:09:58.930Z,0.90
2019-02-07T06:15:17.360Z,1.00
2019-02-07T06:20:26.844Z,1.00
2019-02-07T06:25:30.083Z,1.00
2019-02-07T06:30:39.139Z,1.00
2019-02-07T06:35:44.968Z,1.00
2019-02-07T06:40:50.753Z,1.10
2019-02-07T06:45:54.440Z,1.10
2019-02-07T06:51:03.625Z,1.10
2019-02-07T06:56:23.780Z,1.20
2019-02-07T07:01:36.171Z,1.20
2019-02-07T07:06:42.321Z,1.30
2019-02-07T07:11:45.489Z,1.30
2019-02-07T07:17:07.543Z,1.40
2019-02-07T07:22:13.937Z,1.40
2019-02-07T07:27:33.933Z,1.40
2019-02-07T07:32:53.517Z,1.40
2019-02-07T07:37:59.596Z,1.50
2019-02-07T07:43:05.364Z,1.60
2019-02-07T07:48:14.647Z,1.70
2019-02-07T07:53:23.834Z,1.70
2019-02-07T07:58:43.859Z,1.70
2019-02-07T08:03:52.980Z,1.70
2019-02-07T08:14:17.206Z,1.80
2019-02-07T08:19:26.427Z,1.80
2019-02-07T08:24:33.017Z,1.80
2019-02-07T08:35:11.117Z,1.90
2019-02-07T08:40:23.719Z,2.00
2019-02-07T08:45:26.983Z,2.10
2019-02-07T08:50:45.072Z,2.10
2019-02-07T08:56:03.311Z,2.10
2019-02-07T09:01:06.496Z,2.20
2019-02-07T09:06:12.712Z,2.30
2019-02-07T09:11:27.817Z,2.40
2019-02-07T09:16:36.710Z,2.40
2019-02-07T09:21:49.199Z,2.40
2019-02-07T09:26:55.219Z,2.30
2019-02-07T09:32:15.276Z,2.30
2019-02-07T09:37:18.435Z,2.30
2019-02-07T09:42:33.563Z,2.40
2019-02-07T09:47:45.496Z,2.30
2019-02-07T09:52:54.895Z,2.30
2019-02-07T09:58:00.707Z,2.30
2019-02-07T10:03:16.079Z,2.30
2019-02-07T10:08:35.693Z,2.30
2019-02-07T10:13:44.911Z,2.40
2019-02-07T10:18:48.067Z,2.40
2019-02-07T10:24:08.085Z,2.50
2019-02-07T10:29:14.104Z,2.50
2019-02-07T10:34:23.191Z,2.40
2019-02-07T10:39:26.754Z,2.50
2019-02-07T10:44:37.289Z,2.50
2019-02-07T10:49:58.872Z,2.60
2019-02-07T10:55:10.913Z,3.00
2019-02-07T11:00:26.492Z,3.10
2019-02-07T11:05:32.854Z,3.00
2019-02-07T11:10:52.803Z,2.90
2019-02-07T11:16:16.676Z,2.80
2019-02-07T11:21:19.991Z,3.00
2019-02-07T11:26:32.128Z,3.10
2019-02-07T11:31:38.471Z,3.10
2019-02-07T11:36:54.555Z,3.10
2019-02-07T11:42:06.550Z,3.20
2019-02-07T11:47:09.817Z,3.20
2019-02-07T11:52:28.467Z,3.30
2019-02-07T11:57:31.718Z,3.30
2019-02-07T12:02:43.880Z,3.40
2019-02-07T12:07:52.755Z,3.60
2019-02-07T12:13:01.943Z,3.50
2019-02-07T12:18:14.834Z,3.60
2019-02-07T12:23:24.436Z,3.60
2019-02-07T12:28:37.090Z,3.60
2019-02-07T12:33:49.143Z,3.50
2019-02-07T12:38:55.219Z,3.60
2019-02-07T12:44:13.623Z,3.60
2019-02-07T12:49:29.632Z,3.70
2019-02-07T12:54:47.970Z,3.80
2019-02-07T13:00:10.071Z,4.00
2019-02-07T13:05:27.456Z,4.20
2019-02-07T13:10:33.245Z,4.10
2019-02-07T13:15:39.432Z,4.20
2019-02-07T13:20:45.527Z,4.30
2019-02-07T13:25:54.835Z,4.20
2019-02-07T13:31:16.535Z,4.10
2019-02-07T13:36:36.153Z,4.10
2019-02-07T13:41:42.013Z,4.40
2019-02-07T13:46:50.928Z,4.60
2019-02-07T13:51:54.262Z,4.60
2019-02-07T13:57:14.166Z,4.60
2019-02-07T14:02:20.364Z,4.70
2019-02-07T14:07:26.503Z,4.80
2019-02-07T14:12:46.504Z,5.10
2019-02-07T14:17:50.043Z,5.10
2019-02-07T14:22:53.251Z,5.10
2019-02-07T14:28:11.700Z,5.10
2019-02-07T14:33:14.865Z,5.20
2019-02-07T14:38:20.876Z,5.10
2019-02-07T14:43:41.073Z,5.00
2019-02-07T14:48:45.199Z,4.90
2019-02-07T14:53:46.103Z,5.00
2019-02-07T14:58:47.374Z,5.10
2019-02-07T15:03:48.668Z,4.90
2019-02-07T15:08:49.907Z,4.70
2019-02-07T15:13:52.061Z,4.50
2019-02-07T15:18:53.343Z,4.40
2019-02-07T15:23:54.590Z,4.40
2019-02-07T15:28:56.228Z,4.40
2019-02-07T15:33:57.484Z,4.50
2019-02-07T15:38:58.733Z,4.50
2019-02-07T15:44:00.335Z,4.60
2019-02-07T15:49:01.712Z,4.60
2019-02-07T15:54:04.087Z,4.50
2019-02-07T15:59:07.462Z,4.60
2019-02-07T16:04:14.106Z,4.60
2019-02-07T16:09:15.778Z,4.60
2019-02-07T16:14:17.432Z,4.40
2019-02-07T16:19:18.685Z,4.30
2019-02-07T16:24:20.011Z,4.20
2019-02-07T16:29:21.564Z,4.10
2019-02-07T16:34:23.240Z,3.90
2019-02-07T16:39:25.508Z,3.80
2019-02-07T16:44:26.956Z,3.70
2019-02-07T16:49:28.198Z,3.60
2019-02-07T16:54:29.553Z,3.40
2019-02-07T16:59:31.208Z,3.30
2019-02-07T17:04:32.456Z,3.10
2019-02-07T17:09:35.742Z,3.00
2019-02-07T17:14:37.207Z,2.90
2019-02-07T17:19:38.472Z,2.60
2019-02-07T17:24:39.845Z,2.50
2019-02-07T17:29:44.083Z,2.30
2019-02-07T17:34:45.318Z,2.30
2019-02-07T17:39:46.684Z,2.30
2019-02-07T17:44:48.168Z,2.40
2019-02-07T17:49:49.462Z,2.30
2019-02-07T17:54:52.645Z,2.10
2019-02-07T17:59:54.114Z,1.90
2019-02-07T18:04:55.470Z,1.50
2019-02-07T18:09:57.269Z,1.40
2019-02-07T18:14:58.539Z,1.40
2019-02-07T18:19:59.819Z,1.40
2019-02-07T18:25:01.236Z,1.40
2019-02-07T18:30:13.966Z,1.40
2019-02-07T18:35:17.150Z,1.60
2019-02-07T18:40:28.014Z,1.60
2019-02-07T18:45:29.409Z,1.40
2019-02-07T18:50:35.379Z,1.50
2019-02-07T18:55:36.628Z,1.50
2019-02-07T19:00:38.109Z,1.40
2019-02-07T19:05:39.379Z,1.30
2019-02-07T19:10:41.267Z,1.30
2019-02-07T19:15:50.625Z,1.10
2019-02-07T19:20:51.908Z,1.00
2019-02-07T19:25:53.556Z,1.00
2019-02-07T19:30:54.805Z,1.20
2019-02-07T19:35:56.027Z,1.60
2019-02-07T19:40:57.253Z,2.10
2019-02-07T19:45:58.486Z,2.50
2019-02-07T19:50:59.745Z,2.70
2019-02-07T19:56:01.176Z,2.80
2019-02-07T20:01:04.099Z,2.80
2019-02-07T20:06:05.520Z,2.70
2019-02-07T20:11:06.933Z,2.50
2019-02-07T20:16:08.594Z,2.30
2019-02-07T20:21:09.985Z,2.10
2019-02-07T20:26:11.343Z,2.00
2019-02-07T20:31:12.600Z,2.20
2019-02-07T20:36:13.871Z,2.20
2019-02-07T20:41:15.139Z,2.20
2019-02-07T20:46:16.419Z,2.00
2019-02-07T20:51:17.829Z,2.00
2019-02-07T20:56:19.523Z,1.80
2019-02-07T21:01:21.076Z,1.70
2019-02-07T21:06:22.846Z,1.80
2019-02-07T21:11:24.330Z,2.10
2019-02-07T21:16:26.001Z,2.30
2019-02-07T21:21:27.962Z,2.60
2019-02-07T21:26:29.320Z,2.90
2019-02-07T21:31:30.787Z,3.00
2019-02-07T21:36:32.558Z,2.90
2019-02-07T21:41:34.007Z,2.90
2019-02-07T21:46:35.352Z,2.90
2019-02-07T21:51:36.693Z,2.70
2019-02-07T21:56:37.931Z,2.60
2019-02-07T22:01:39.226Z,2.50
2019-02-07T22:06:40.539Z,2.40
2019-02-07T22:11:41.824Z,2.40
2019-02-07T22:16:43.090Z,2.40
2019-02-07T22:21:44.363Z,2.30
2019-02-07T22:26:45.605Z,2.40
2019-02-07T22:31:46.858Z,2.30
2019-02-07T22:36:48.104Z,2.30
2019-02-07T22:41:49.349Z,2.40
2019-02-07T22:46:51.052Z,2.50
2019-02-07T22:51:52.306Z,2.50
2019-02-07T22:56:53.596Z,2.50
2019-02-07T23:01:55.562Z,2.60
2019-02-07T23:06:56.842Z,2.70
2019-02-07T23:11:58.074Z,2.80
2019-02-07T23:16:59.428Z,2.80
2019-02-07T23:22:00.944Z,2.90
2019-02-07T23:27:03.626Z,2.90
2019-02-07T23:32:04.890Z,2.90
2019-02-07T23:37:06.230Z,2.90
2019-02-07T23:42:07.688Z,2.90
2019-02-07T23:47:09.024Z,2.90
2019-02-07T23:52:10.286Z,3.00
2019-02-07T23:57:11.614Z,3.00
